createdAt,value
2022-11-10T00:01:07.828Z,100157.50
2022-11-10T00:03:36.061Z,100160.06
2022-11-10T00:06:07.290Z,100160.81
2022-11-10T00:08:34.635Z,100158.25
2022-11-10T00:11:08.353Z,100158.25
2022-11-10T00:13:57.314Z,100156.69
2022-11-10T00:16:42.759Z,100159.91
2022-11-10T00:19:09.643Z,100159.22
2022-11-10T00:21:37.226Z,100166.59
2022-11-10T00:24:04.315Z,100167.28
2022-11-10T00:26:30.823Z,100164.03
2022-11-10T00:28:57.370Z,100165.75
2022-11-10T00:31:23.824Z,100164.88
2022-11-10T00:33:50.587Z,100163.16
2022-11-10T00:36:17.051Z,100154.31
2022-11-10T00:38:43.534Z,100143.16
2022-11-10T00:41:10.061Z,100146.38
2022-11-10T00:43:36.557Z,100137.75
2022-11-10T00:46:03.138Z,100138.44
2022-11-10T00:48:29.722Z,100136.13
2022-11-10T00:50:56.233Z,100132.34
2022-11-10T00:53:23.299Z,100140.78
2022-11-10T00:55:50.246Z,100134.97
2022-11-10T00:58:16.850Z,100132.16
2022-11-10T01:00:43.438Z,100127.72
2022-11-10T01:03:17.769Z,100126.94
2022-11-10T01:05:44.807Z,100127.63
2022-11-10T01:08:11.645Z,100125.78
2022-11-10T01:10:38.191Z,100129.25
2022-11-10T01:13:04.785Z,100125.84
2022-11-10T01:15:31.298Z,100127.81
2022-11-10T01:17:57.864Z,100132.53
2022-11-10T01:20:25.380Z,100131.44
2022-11-10T01:22:52.150Z,100135.66
2022-11-10T01:25:18.967Z,100126.97
2022-11-10T01:27:45.645Z,100134.56
2022-11-10T01:30:12.488Z,100137.06
2022-11-10T01:32:39.141Z,100142.91
2022-11-10T01:35:06.350Z,100141.00
2022-11-10T01:37:32.879Z,100147.66
2022-11-10T01:39:59.729Z,100141.84
2022-11-10T01:42:28.486Z,100150.28
2022-11-10T01:45:22.970Z,100144.41
2022-11-10T01:47:58.908Z,100148.56
2022-11-10T01:50:30.130Z,100146.47
2022-11-10T01:53:00.285Z,100150.59
2022-11-10T01:55:27.412Z,100146.28
2022-11-10T01:57:55.624Z,100146.38
2022-11-10T02:00:22.947Z,100148.75
2022-11-10T02:03:04.003Z,100137.44
2022-11-10T02:05:31.809Z,100151.06
2022-11-10T02:07:58.586Z,100145.84
2022-11-10T02:10:25.728Z,100140.56
2022-11-10T02:12:52.558Z,100139.72
2022-11-10T02:15:19.555Z,100136.28
2022-11-10T02:17:47.722Z,100143.97
2022-11-10T02:20:17.325Z,100138.28
2022-11-10T02:22:44.257Z,100134.97
2022-11-10T02:25:13.928Z,100136.00
2022-11-10T02:27:40.468Z,100134.63
2022-11-10T02:30:07.876Z,100131.25
2022-11-10T02:32:34.440Z,100131.25
2022-11-10T02:35:00.944Z,100123.75
2022-11-10T02:37:27.456Z,100125.69
2022-11-10T02:39:54.026Z,100130.28
2022-11-10T02:42:20.798Z,100130.53
2022-11-10T02:44:47.775Z,100132.06
2022-11-10T02:47:14.284Z,100131.22
2022-11-10T02:49:40.788Z,100137.13
2022-11-10T02:52:07.298Z,100134.28
2022-11-10T02:54:33.815Z,100142.75
2022-11-10T02:57:02.706Z,100132.34
2022-11-10T02:59:29.409Z,100138.34
2022-11-10T03:01:55.921Z,100143.25
2022-11-10T03:04:22.418Z,100144.34
2022-11-10T03:06:48.942Z,100142.41
2022-11-10T03:09:15.549Z,100150.22
2022-11-10T03:11:42.013Z,100153.78
2022-11-10T03:14:08.564Z,100150.56
2022-11-10T03:16:35.042Z,100154.09
2022-11-10T03:19:01.556Z,100159.91
2022-11-10T03:21:28.161Z,100166.44
2022-11-10T03:23:54.699Z,100163.41
2022-11-10T03:26:22.412Z,100166.03
2022-11-10T03:28:48.914Z,100169.16
2022-11-10T03:31:15.393Z,100163.34
2022-11-10T03:33:41.868Z,100171.00
2022-11-10T03:36:08.445Z,100181.25
2022-11-10T03:38:34.937Z,100171.28
2022-11-10T03:41:18.799Z,100178.16
2022-11-10T03:43:46.257Z,100179.13
2022-11-10T03:46:12.755Z,100196.47
2022-11-10T03:48:39.216Z,100189.00
2022-11-10T03:51:05.910Z,100194.59
2022-11-10T03:53:32.466Z,100180.22
2022-11-10T03:56:06.145Z,100193.78
2022-11-10T03:58:32.833Z,100185.34
2022-11-10T04:00:59.654Z,100181.97
2022-11-10T04:03:26.534Z,100187.41
2022-11-10T04:06:11.721Z,100186.41
2022-11-10T04:08:56.982Z,100186.41
2022-11-10T04:11:41.925Z,100183.88
2022-11-10T04:14:26.766Z,100185.69
2022-11-10T04:16:53.190Z,100196.31
2022-11-10T04:19:19.769Z,100199.66
2022-11-10T04:21:46.508Z,100198.22
2022-11-10T04:24:13.058Z,100203.19
2022-11-10T04:26:40.602Z,100209.44
2022-11-10T04:29:09.567Z,100210.41
2022-11-10T04:31:38.019Z,100215.84
2022-11-10T04:34:09.884Z,100216.22
2022-11-10T04:36:38.670Z,100217.25
2022-11-10T04:39:06.334Z,100219.25
2022-11-10T04:41:33.719Z,100221.75
2022-11-10T04:44:01.288Z,100231.84
2022-11-10T04:46:37.421Z,100233.59
2022-11-10T04:49:05.570Z,100234.50
2022-11-10T04:51:38.112Z,100233.38
2022-11-10T04:54:06.482Z,100238.59
2022-11-10T04:56:34.583Z,100236.66
2022-11-10T04:59:01.050Z,100243.19
2022-11-10T05:01:28.166Z,100252.00
2022-11-10T05:03:55.095Z,100254.81
2022-11-10T05:06:22.079Z,100254.47
2022-11-10T05:08:48.925Z,100265.63
2022-11-10T05:11:15.578Z,100264.91
2022-11-10T05:13:43.307Z,100258.44
2022-11-10T05:16:11.024Z,100241.28
2022-11-10T05:18:37.970Z,100223.38
2022-11-10T05:21:05.382Z,100220.44
2022-11-10T05:23:37.882Z,100224.25
2022-11-10T05:26:08.686Z,100224.25
2022-11-10T05:28:35.948Z,100227.97
2022-11-10T05:31:02.892Z,100220.75
2022-11-10T05:33:29.883Z,100216.09
2022-11-10T05:35:56.447Z,100226.31
2022-11-10T05:38:23.116Z,100230.25
2022-11-10T05:40:49.713Z,100232.25
2022-11-10T05:43:16.460Z,100233.81
2022-11-10T05:45:43.049Z,100233.53
2022-11-10T05:48:09.622Z,100237.56
2022-11-10T05:50:36.754Z,100234.44
2022-11-10T05:53:03.468Z,100244.75
2022-11-10T05:55:30.682Z,100249.13
2022-11-10T05:57:57.863Z,100253.81
2022-11-10T06:00:27.602Z,100262.66
2022-11-10T06:03:12.410Z,100264.94
2022-11-10T06:05:38.834Z,100256.41
2022-11-10T06:08:06.453Z,100262.53
2022-11-10T06:10:34.218Z,100264.13
2022-11-10T06:13:01.202Z,100263.72
2022-11-10T06:15:28.208Z,100268.03
2022-11-10T06:17:55.121Z,100266.22
2022-11-10T06:20:22.647Z,100277.94
2022-11-10T06:23:05.531Z,100273.53
2022-11-10T06:25:34.744Z,100278.63
2022-11-10T06:28:01.871Z,100279.53
2022-11-10T06:30:29.688Z,100284.94
2022-11-10T06:32:56.263Z,100293.38
2022-11-10T06:35:23.868Z,100299.97
2022-11-10T06:38:05.764Z,100305.16
2022-11-10T06:40:33.245Z,100306.00
2022-11-10T06:43:01.539Z,100307.84
2022-11-10T06:45:28.691Z,100318.03
2022-11-10T06:48:06.306Z,100312.16
2022-11-10T06:50:33.493Z,100325.81
2022-11-10T06:53:00.435Z,100337.44
2022-11-10T06:55:27.391Z,100351.81
2022-11-10T06:57:54.388Z,100366.31
2022-11-10T07:00:21.873Z,100379.44
2022-11-10T07:02:48.465Z,100376.84
2022-11-10T07:05:15.567Z,100375.94
2022-11-10T07:07:42.138Z,100384.31
2022-11-10T07:10:09.194Z,100382.63
2022-11-10T07:12:35.936Z,100387.94
2022-11-10T07:15:02.421Z,100387.94
2022-11-10T07:17:28.912Z,100375.72
2022-11-10T07:19:55.451Z,100377.47
2022-11-10T07:22:21.961Z,100370.81
2022-11-10T07:24:48.533Z,100364.47
2022-11-10T07:27:15.018Z,100371.63
2022-11-10T07:29:42.093Z,100379.53
2022-11-10T07:32:08.616Z,100387.25
2022-11-10T07:34:35.118Z,100388.31
2022-11-10T07:37:01.638Z,100387.84
2022-11-10T07:39:28.126Z,100401.00
2022-11-10T07:41:54.695Z,100405.38
2022-11-10T07:44:21.170Z,100418.41
2022-11-10T07:46:47.660Z,100424.47
2022-11-10T07:49:14.241Z,100429.66
2022-11-10T07:51:43.393Z,100432.09
2022-11-10T07:54:10.151Z,100450.06
2022-11-10T07:56:36.799Z,100455.28
2022-11-10T07:59:03.333Z,100460.78
2022-11-10T08:01:30.086Z,100458.69
2022-11-10T08:03:56.668Z,100462.94
2022-11-10T08:06:23.159Z,100456.06
2022-11-10T08:08:49.764Z,100463.25
2022-11-10T08:11:16.325Z,100453.44
2022-11-10T08:13:43.400Z,100457.31
2022-11-10T08:16:10.163Z,100462.75
2022-11-10T08:18:36.751Z,100471.56
2022-11-10T08:21:04.328Z,100477.59
2022-11-10T08:23:31.005Z,100475.22
2022-11-10T08:26:01.432Z,100487.44
2022-11-10T08:28:28.520Z,100502.25
2022-11-10T08:30:55.156Z,100514.25
2022-11-10T08:33:22.076Z,100527.00
2022-11-10T08:35:51.023Z,100528.69
2022-11-10T08:38:19.957Z,100535.50
2022-11-10T08:40:46.853Z,100540.59
2022-11-10T08:43:15.183Z,100544.28
2022-11-10T08:45:43.233Z,100537.38
2022-11-10T08:48:12.931Z,100542.91
2022-11-10T08:50:39.760Z,100546.00
2022-11-10T08:53:10.225Z,100539.06
2022-11-10T08:55:36.736Z,100543.63
2022-11-10T08:58:04.602Z,100543.69
2022-11-10T09:00:32.567Z,100541.13
2022-11-10T09:03:20.638Z,100538.66
2022-11-10T09:05:52.418Z,100528.38
2022-11-10T09:08:23.304Z,100529.47
2022-11-10T09:10:51.142Z,100527.69
2022-11-10T09:13:19.046Z,100542.59
2022-11-10T09:15:45.742Z,100547.66
2022-11-10T09:18:13.907Z,100580.63
2022-11-10T09:20:41.066Z,100604.00
2022-11-10T09:23:16.676Z,100609.84
2022-11-10T09:25:49.936Z,100615.91
2022-11-10T09:28:18.003Z,100630.06
2022-11-10T09:30:49.813Z,100632.03
2022-11-10T09:33:17.996Z,100630.81
2022-11-10T09:35:45.048Z,100641.38
2022-11-10T09:38:12.166Z,100659.50
2022-11-10T09:40:49.238Z,100663.81
2022-11-10T09:43:23.801Z,100679.09
2022-11-10T09:45:53.765Z,100683.25
2022-11-10T09:48:31.573Z,100681.88
2022-11-10T09:51:13.887Z,100693.59
2022-11-10T09:53:50.729Z,100698.72
2022-11-10T09:56:23.123Z,100710.97
2022-11-10T09:58:50.889Z,100712.75
2022-11-10T10:01:38.118Z,100721.47
2022-11-10T10:04:27.563Z,100734.41
2022-11-10T10:07:14.410Z,100740.44
2022-11-10T10:09:49.703Z,100754.38
2022-11-10T10:12:44.110Z,100772.25
2022-11-10T10:15:32.420Z,100779.34
2022-11-10T10:18:14.276Z,100789.00
2022-11-10T10:20:49.609Z,100794.19
2022-11-10T10:23:40.385Z,100791.94
2022-11-10T10:26:17.367Z,100796.84
2022-11-10T10:28:49.549Z,100792.84
2022-11-10T10:31:27.249Z,100791.38
2022-11-10T10:33:55.060Z,100813.19
2022-11-10T10:36:26.588Z,100817.00
2022-11-10T10:39:08.072Z,100809.88
2022-11-10T10:41:37.140Z,100822.97
2022-11-10T10:44:11.903Z,100828.09
2022-11-10T10:46:59.298Z,100839.91
2022-11-10T10:49:29.077Z,100845.47
2022-11-10T10:52:05.295Z,100843.50
2022-11-10T10:54:33.993Z,100840.38
2022-11-10T10:57:23.423Z,100843.75
2022-11-10T10:59:51.057Z,100849.19
2022-11-10T11:02:30.987Z,100849.72
2022-11-10T11:05:15.620Z,100844.53
2022-11-10T11:07:54.307Z,100839.81
2022-11-10T11:10:33.824Z,100834.19
2022-11-10T11:13:24.733Z,100835.13
2022-11-10T11:15:58.807Z,100824.97
2022-11-10T11:18:27.259Z,100826.47
2022-11-10T11:21:05.563Z,100831.44
2022-11-10T11:23:59.629Z,100821.75
2022-11-10T11:26:34.291Z,100813.84
2022-11-10T11:29:21.749Z,100817.81
2022-11-10T11:31:50.992Z,100819.59
2022-11-10T11:34:26.252Z,100813.50
2022-11-10T11:37:09.875Z,100820.91
2022-11-10T11:39:59.000Z,100820.06
2022-11-10T11:42:36.958Z,100805.13
2022-11-10T11:45:17.262Z,100799.34
2022-11-10T11:47:50.766Z,100799.66
2022-11-10T11:50:41.421Z,100802.69
2022-11-10T11:53:14.137Z,100796.84
2022-11-10T11:55:58.233Z,100808.28
2022-11-10T11:58:27.429Z,100804.28
2022-11-10T12:01:12.182Z,100808.22
2022-11-10T12:03:50.834Z,100801.41
2022-11-10T12:06:40.559Z,100796.91
2022-11-10T12:09:35.053Z,100803.97
2022-11-10T12:12:06.399Z,100808.84
2022-11-10T12:15:00.890Z,100807.28
2022-11-10T12:17:42.665Z,100809.38
2022-11-10T12:20:30.698Z,100804.47
2022-11-10T12:23:06.317Z,100808.44
2022-11-10T12:26:03.109Z,100814.97
2022-11-10T12:28:51.245Z,100821.69
2022-11-10T12:31:22.139Z,100819.50
2022-11-10T12:33:56.641Z,100819.06
2022-11-10T12:36:26.243Z,100813.41
2022-11-10T12:39:15.711Z,100804.66
2022-11-10T12:41:47.756Z,100794.19
2022-11-10T12:44:24.523Z,100798.25
2022-11-10T12:46:56.989Z,100803.16
2022-11-10T12:49:32.507Z,100789.72
2022-11-10T12:52:40.656Z,100800.78
2022-11-10T12:55:15.063Z,100795.19
2022-11-10T12:57:42.935Z,100804.31
2022-11-10T13:00:31.794Z,100802.56
2022-11-10T13:03:00.038Z,100812.13
2022-11-10T13:05:34.411Z,100806.09
2022-11-10T13:08:06.109Z,100810.09
2022-11-10T13:10:32.786Z,100813.38
2022-11-10T13:13:05.284Z,100804.78
2022-11-10T13:15:44.008Z,100802.16
2022-11-10T13:18:34.483Z,100801.44
2022-11-10T13:21:01.840Z,100794.81
2022-11-10T13:23:28.432Z,100799.41
2022-11-10T13:26:01.306Z,100800.25
2022-11-10T13:28:46.402Z,100800.09
2022-11-10T13:31:33.216Z,100799.94
2022-11-10T13:34:11.617Z,100793.94
2022-11-10T13:36:43.839Z,100793.19
2022-11-10T13:39:19.050Z,100792.00
2022-11-10T13:41:49.934Z,100790.91
2022-11-10T13:44:27.234Z,100796.41
2022-11-10T13:47:06.110Z,100788.63
2022-11-10T13:49:39.031Z,100793.50
2022-11-10T13:52:18.271Z,100788.66
2022-11-10T13:55:29.372Z,100788.56
2022-11-10T13:58:29.812Z,100799.13
2022-11-10T14:01:26.926Z,100793.16
2022-11-10T14:03:57.359Z,100797.44
2022-11-10T14:06:40.250Z,100792.59
2022-11-10T14:09:22.246Z,100799.41
2022-11-10T14:11:54.022Z,100804.25
2022-11-10T14:14:24.582Z,100809.22
2022-11-10T14:16:53.121Z,100810.31
2022-11-10T14:19:25.256Z,100799.88
2022-11-10T14:22:13.695Z,100806.03
2022-11-10T14:25:19.430Z,100807.59
2022-11-10T14:27:45.984Z,100807.09
2022-11-10T14:30:18.340Z,100812.44
2022-11-10T14:32:44.977Z,100813.31
2022-11-10T14:35:24.021Z,100819.53
2022-11-10T14:37:51.403Z,100833.94
2022-11-10T14:40:20.192Z,100827.88
2022-11-10T14:42:47.760Z,100829.75
2022-11-10T14:45:32.515Z,100832.75
2022-11-10T14:48:00.349Z,100826.72
2022-11-10T14:50:28.352Z,100817.53
2022-11-10T14:53:02.114Z,100823.03
2022-11-10T14:55:32.065Z,100812.50
2022-11-10T14:58:03.937Z,100825.16
2022-11-10T15:00:36.133Z,100827.75
2022-11-10T15:03:03.801Z,100822.28
2022-11-10T15:05:31.576Z,100819.22
2022-11-10T15:07:59.227Z,100832.75
2022-11-10T15:10:42.099Z,100836.19
2022-11-10T15:13:14.775Z,100830.75
2022-11-10T15:15:41.662Z,100830.72
2022-11-10T15:18:25.289Z,100826.41
2022-11-10T15:21:02.069Z,100819.56
2022-11-10T15:23:39.103Z,100825.78
2022-11-10T15:26:07.660Z,100830.09
2022-11-10T15:28:35.867Z,100830.91
2022-11-10T15:31:05.622Z,100839.31
2022-11-10T15:33:35.716Z,100839.47
2022-11-10T15:36:27.853Z,100841.88
2022-11-10T15:39:20.049Z,100840.94
2022-11-10T15:41:48.217Z,100839.00
2022-11-10T15:44:19.266Z,100843.13
2022-11-10T15:46:47.087Z,100844.91
2022-11-10T15:49:35.830Z,100841.78
2022-11-10T15:52:22.957Z,100849.94
2022-11-10T15:54:50.937Z,100848.09
2022-11-10T15:57:19.842Z,100850.69
2022-11-10T15:59:46.524Z,100851.72
2022-11-10T16:02:23.317Z,100855.66
2022-11-10T16:04:59.583Z,100853.25
2022-11-10T16:07:26.805Z,100859.38
2022-11-10T16:09:53.388Z,100857.69
2022-11-10T16:12:22.243Z,100852.94
2022-11-10T16:14:51.267Z,100853.69
2022-11-10T16:17:18.325Z,100868.31
2022-11-10T16:19:46.552Z,100862.22
2022-11-10T16:22:13.681Z,100864.53
2022-11-10T16:24:41.261Z,100849.63
2022-11-10T16:27:12.802Z,100857.00
2022-11-10T16:29:40.380Z,100849.19
2022-11-10T16:32:07.339Z,100843.88
2022-11-10T16:34:33.909Z,100837.91
2022-11-10T16:37:00.810Z,100828.25
2022-11-10T16:39:27.619Z,100823.66
2022-11-10T16:41:54.120Z,100830.22
2022-11-10T16:44:25.265Z,100821.91
2022-11-10T16:46:56.424Z,100814.88
2022-11-10T16:49:34.760Z,100816.13
2022-11-10T16:52:13.976Z,100811.41
2022-11-10T16:54:40.541Z,100808.81
2022-11-10T16:57:14.421Z,100803.63
2022-11-10T16:59:42.901Z,100802.13
2022-11-10T17:02:33.712Z,100805.22
2022-11-10T17:05:00.239Z,100810.25
2022-11-10T17:07:27.929Z,100796.31
2022-11-10T17:09:57.109Z,100792.63
2022-11-10T17:12:23.610Z,100783.75
2022-11-10T17:14:50.148Z,100781.13
2022-11-10T17:17:19.386Z,100774.06
2022-11-10T17:19:48.572Z,100769.13
2022-11-10T17:22:19.401Z,100771.69
2022-11-10T17:24:51.990Z,100776.72
2022-11-10T17:27:20.042Z,100778.13
2022-11-10T17:29:46.983Z,100769.38
2022-11-10T17:32:13.931Z,100775.28
2022-11-10T17:34:40.554Z,100780.00
2022-11-10T17:37:12.906Z,100758.44
2022-11-10T17:39:40.405Z,100756.72
2022-11-10T17:42:11.913Z,100761.41
2022-11-10T17:44:38.450Z,100754.28
2022-11-10T17:47:05.082Z,100741.97
2022-11-10T17:49:31.659Z,100739.28
2022-11-10T17:51:58.147Z,100739.19
2022-11-10T17:54:25.392Z,100739.94
2022-11-10T17:56:51.954Z,100730.38
2022-11-10T17:59:18.504Z,100727.66
2022-11-10T18:01:45.623Z,100732.66
2022-11-10T18:04:13.716Z,100738.81
2022-11-10T18:06:40.223Z,100743.84
2022-11-10T18:09:06.748Z,100733.41
2022-11-10T18:11:33.487Z,100718.88
2022-11-10T18:14:00.753Z,100707.91
2022-11-10T18:16:27.250Z,100703.59
2022-11-10T18:18:53.816Z,100700.63
2022-11-10T18:21:20.323Z,100698.63
2022-11-10T18:23:47.137Z,100693.44
2022-11-10T18:26:13.681Z,100698.75
2022-11-10T18:28:41.131Z,100690.97
2022-11-10T18:31:09.906Z,100692.75
2022-11-10T18:33:36.840Z,100699.63
2022-11-10T18:36:03.992Z,100709.72
2022-11-10T18:38:30.521Z,100695.97
2022-11-10T18:41:17.103Z,100691.47
2022-11-10T18:43:43.687Z,100682.66
2022-11-10T18:46:10.233Z,100674.91
2022-11-10T18:48:37.475Z,100673.06
2022-11-10T18:51:07.421Z,100665.47
2022-11-10T18:53:38.082Z,100665.47
2022-11-10T18:56:05.446Z,100661.28
2022-11-10T18:58:32.162Z,100663.06
2022-11-10T19:01:06.833Z,100669.19
2022-11-10T19:03:34.879Z,100676.06
2022-11-10T19:06:01.599Z,100671.34
2022-11-10T19:08:28.863Z,100669.41
2022-11-10T19:10:56.299Z,100666.34
2022-11-10T19:13:23.131Z,100661.66
2022-11-10T19:15:50.458Z,100654.69
2022-11-10T19:18:17.118Z,100658.88
2022-11-10T19:20:43.634Z,100657.25
2022-11-10T19:23:10.149Z,100655.38
2022-11-10T19:25:36.762Z,100650.25
2022-11-10T19:28:04.662Z,100639.66
2022-11-10T19:30:31.417Z,100634.31
2022-11-10T19:32:57.989Z,100628.25
2022-11-10T19:35:24.514Z,100631.00
2022-11-10T19:37:54.087Z,100617.19
2022-11-10T19:40:22.396Z,100617.13
2022-11-10T19:42:49.374Z,100607.56
2022-11-10T19:45:16.657Z,100611.53
2022-11-10T19:47:43.724Z,100614.19
2022-11-10T19:50:10.444Z,100615.03
2022-11-10T19:52:36.989Z,100609.69
2022-11-10T19:55:03.702Z,100606.22
2022-11-10T19:57:30.239Z,100605.91
2022-11-10T19:59:56.711Z,100600.56
2022-11-10T20:02:23.247Z,100591.88
2022-11-10T20:05:08.246Z,100584.00
2022-11-10T20:07:53.130Z,100575.44
2022-11-10T20:10:19.556Z,100567.63
2022-11-10T20:12:46.085Z,100567.75
2022-11-10T20:15:12.697Z,100564.56
2022-11-10T20:17:39.303Z,100568.69
2022-11-10T20:20:07.170Z,100565.91
2022-11-10T20:22:33.723Z,100565.47
2022-11-10T20:25:00.715Z,100573.28
2022-11-10T20:27:27.265Z,100579.94
2022-11-10T20:29:53.830Z,100590.19
2022-11-10T20:32:20.682Z,100595.06
2022-11-10T20:34:47.185Z,100604.25
2022-11-10T20:37:13.665Z,100602.19
2022-11-10T20:39:40.224Z,100605.47
2022-11-10T20:42:06.731Z,100604.47
2022-11-10T20:44:33.780Z,100606.75
2022-11-10T20:47:01.047Z,100609.47
2022-11-10T20:49:27.907Z,100606.53
2022-11-10T20:51:59.643Z,100615.09
2022-11-10T20:54:26.982Z,100603.97
2022-11-10T20:56:54.146Z,100598.34
2022-11-10T20:59:21.326Z,100594.53
2022-11-10T21:01:47.943Z,100594.66
2022-11-10T21:04:14.665Z,100594.44
2022-11-10T21:06:41.315Z,100600.41
2022-11-10T21:09:08.021Z,100605.13
2022-11-10T21:11:53.291Z,100608.63
2022-11-10T21:14:19.795Z,100592.59
2022-11-10T21:16:46.340Z,100595.22
2022-11-10T21:19:12.870Z,100597.84
2022-11-10T21:21:39.351Z,100609.41
2022-11-10T21:24:07.426Z,100601.44
2022-11-10T21:26:35.704Z,100584.47
2022-11-10T21:29:03.709Z,100582.78
2022-11-10T21:31:33.396Z,100577.59
2022-11-10T21:34:00.232Z,100566.53
2022-11-10T21:36:29.587Z,100566.34
2022-11-10T21:38:57.609Z,100571.84
2022-11-10T21:41:25.213Z,100571.06
2022-11-10T21:43:51.729Z,100562.72
2022-11-10T21:46:18.253Z,100565.88
2022-11-10T21:48:45.171Z,100557.25
2022-11-10T21:51:12.579Z,100555.81
2022-11-10T21:53:39.730Z,100548.25
2022-11-10T21:56:08.165Z,100554.84
2022-11-10T21:58:35.248Z,100546.28
2022-11-10T22:01:03.014Z,100544.34
2022-11-10T22:03:30.581Z,100538.34
2022-11-10T22:06:06.313Z,100532.34
2022-11-10T22:08:33.689Z,100538.03
2022-11-10T22:11:18.832Z,100525.16
2022-11-10T22:14:04.595Z,100528.34
2022-11-10T22:17:09.031Z,100523.34
2022-11-10T22:19:36.994Z,100523.28
2022-11-10T22:22:04.343Z,100512.31
2022-11-10T22:24:31.202Z,100514.16
2022-11-10T22:27:03.179Z,100508.19
2022-11-10T22:29:33.161Z,100503.81
2022-11-10T22:32:01.851Z,100504.34
2022-11-10T22:34:28.619Z,100504.28
2022-11-10T22:36:55.519Z,100508.34
2022-11-10T22:39:22.038Z,100510.91
2022-11-10T22:42:07.484Z,100509.81
2022-11-10T22:44:34.110Z,100502.63
2022-11-10T22:47:00.674Z,100502.94
2022-11-10T22:49:27.753Z,100507.66
2022-11-10T22:51:55.314Z,100513.59
2022-11-10T22:54:24.574Z,100503.38
2022-11-10T22:56:51.554Z,100489.94
2022-11-10T22:59:19.079Z,100488.31
2022-11-10T23:01:45.895Z,100480.72
2022-11-10T23:04:12.679Z,100486.53
2022-11-10T23:06:39.425Z,100487.91
2022-11-10T23:09:06.333Z,100489.50
2022-11-10T23:11:33.562Z,100486.06
2022-11-10T23:14:00.532Z,100483.50
2022-11-10T23:16:33.725Z,100477.38
2022-11-10T23:19:01.055Z,100480.69
2022-11-10T23:21:30.508Z,100473.94
2022-11-10T23:23:57.556Z,100473.09
2022-11-10T23:26:34.009Z,100468.03
2022-11-10T23:29:00.848Z,100465.97
2022-11-10T23:31:28.893Z,100473.56
2022-11-10T23:33:56.626Z,100476.78
2022-11-10T23:36:24.757Z,100469.00
2022-11-10T23:38:51.316Z,100467.63
2022-11-10T23:41:19.968Z,100467.50
2022-11-10T23:43:47.505Z,100462.00
2022-11-10T23:46:14.444Z,100462.94
2022-11-10T23:48:41.455Z,100460.06
2022-11-10T23:51:10.527Z,100458.75
2022-11-10T23:53:37.069Z,100455.38
2022-11-10T23:56:06.282Z,100462.63
2022-11-10T23:58:32.903Z,100448.69
